createdAt,value
2023-01-11T00:01:53.995Z,101429.88
2023-01-11T00:04:28.393Z,101431.74
2023-01-11T00:06:57.998Z,101435.43
2023-01-11T00:09:26.793Z,101436.57
2023-01-11T00:11:55.602Z,101436.05
2023-01-11T00:14:24.351Z,101441.46
2023-01-11T00:16:53.193Z,101451.09
2023-01-11T00:19:21.859Z,101457.34
2023-01-11T00:21:50.664Z,101462.06
2023-01-11T00:24:19.471Z,101462.17
2023-01-11T00:26:48.240Z,101464.66
2023-01-11T00:29:17.136Z,101473.87
2023-01-11T00:31:45.791Z,101478.16
2023-01-11T00:34:14.577Z,101489.24
2023-01-11T00:36:43.341Z,101492.73
2023-01-11T00:39:12.069Z,101495.20
2023-01-11T00:41:58.914Z,101498.73
2023-01-11T00:44:45.943Z,101501.41
2023-01-11T00:47:35.525Z,101511.10
2023-01-11T00:50:04.972Z,101519.70
2023-01-11T00:52:33.766Z,101516.80
2023-01-11T00:55:02.552Z,101516.33
2023-01-11T00:57:31.340Z,101513.57
2023-01-11T01:00:00.734Z,101508.66
2023-01-11T01:02:29.799Z,101507.17
2023-01-11T01:04:58.608Z,101511.47
2023-01-11T01:07:27.551Z,101508.83
2023-01-11T01:09:56.377Z,101506.91
2023-01-11T01:12:43.849Z,101505.34
2023-01-11T01:15:12.512Z,101509.63
2023-01-11T01:17:41.381Z,101513.67
2023-01-11T01:20:10.968Z,101518.63
2023-01-11T01:22:39.820Z,101519.79
2023-01-11T01:25:09.523Z,101522.55
2023-01-11T01:27:38.247Z,101526.47
2023-01-11T01:30:10.551Z,101529.63
2023-01-11T01:32:39.384Z,101537.52
2023-01-11T01:35:09.303Z,101543.96
2023-01-11T01:37:38.131Z,101549.39
2023-01-11T01:40:07.810Z,101553.05
2023-01-11T01:42:36.619Z,101555.84
2023-01-11T01:45:08.161Z,101555.05
2023-01-11T01:48:02.027Z,101552.84
2023-01-11T01:50:41.748Z,101553.80
2023-01-11T01:53:28.577Z,101555.30
2023-01-11T01:56:01.917Z,101559.27
2023-01-11T01:58:40.998Z,101561.65
2023-01-11T02:01:27.941Z,101556.01
2023-01-11T02:03:56.857Z,101553.44
2023-01-11T02:06:25.968Z,101548.41
2023-01-11T02:09:12.224Z,101552.03
2023-01-11T02:11:43.583Z,101551.33
2023-01-11T02:14:17.353Z,101550.33
2023-01-11T02:16:46.143Z,101555.55
2023-01-11T02:19:33.551Z,101562.60
2023-01-11T02:22:44.082Z,101562.11
2023-01-11T02:25:59.164Z,101552.83
2023-01-11T02:28:58.507Z,101551.93
2023-01-11T02:31:36.320Z,101543.64
2023-01-11T02:34:29.418Z,101547.48
2023-01-11T02:37:27.881Z,101548.77
2023-01-11T02:40:14.603Z,101558.64
2023-01-11T02:43:28.213Z,101557.66
2023-01-11T02:46:13.596Z,101560.89
2023-01-11T02:49:11.967Z,101567.48
2023-01-11T02:51:47.982Z,101565.38
2023-01-11T02:54:20.082Z,101570.55
2023-01-11T02:56:54.484Z,101579.45
2023-01-11T02:59:31.119Z,101581.44
2023-01-11T03:02:00.037Z,101587.21
2023-01-11T03:04:37.675Z,101596.88
2023-01-11T03:07:49.110Z,101607.35
2023-01-11T03:10:41.544Z,101613.48
2023-01-11T03:13:31.687Z,101617.70
2023-01-11T03:16:13.633Z,101633.04
2023-01-11T03:18:52.720Z,101637.17
2023-01-11T03:21:50.372Z,101639.00
2023-01-11T03:24:31.040Z,101651.76
2023-01-11T03:27:12.487Z,101657.78
2023-01-11T03:30:00.592Z,101670.49
2023-01-11T03:32:49.344Z,101669.44
2023-01-11T03:35:28.424Z,101674.40
2023-01-11T03:38:12.643Z,101674.19
2023-01-11T03:40:53.692Z,101673.80
2023-01-11T03:43:24.955Z,101679.14
2023-01-11T03:46:04.969Z,101682.95
2023-01-11T03:48:43.144Z,101687.73
2023-01-11T03:51:18.005Z,101695.09
2023-01-11T03:53:51.062Z,101690.54
2023-01-11T03:56:30.753Z,101685.58
2023-01-11T03:58:59.455Z,101689.55
2023-01-11T04:01:28.507Z,101692.98
2023-01-11T04:03:57.212Z,101686.27
2023-01-11T04:06:26.136Z,101679.58
2023-01-11T04:08:54.935Z,101676.53
2023-01-11T04:11:23.602Z,101676.56
2023-01-11T04:13:52.365Z,101683.69
2023-01-11T04:16:21.169Z,101688.31
2023-01-11T04:18:49.937Z,101688.77
2023-01-11T04:21:18.658Z,101686.42
2023-01-11T04:23:47.368Z,101687.10
2023-01-11T04:26:17.738Z,101697.26
2023-01-11T04:28:46.629Z,101699.90
2023-01-11T04:31:15.407Z,101701.79
2023-01-11T04:33:44.261Z,101709.05
2023-01-11T04:36:13.155Z,101703.39
2023-01-11T04:38:41.954Z,101707.05
2023-01-11T04:41:29.362Z,101706.59
2023-01-11T04:43:58.087Z,101705.38
2023-01-11T04:46:27.065Z,101707.95
2023-01-11T04:48:56.545Z,101701.54
2023-01-11T04:51:25.387Z,101696.56
2023-01-11T04:53:54.315Z,101690.93
2023-01-11T04:56:23.629Z,101694.91
2023-01-11T04:58:52.423Z,101695.34
2023-01-11T05:01:21.609Z,101694.16
2023-01-11T05:03:51.495Z,101698.73
2023-01-11T05:06:22.580Z,101707.11
2023-01-11T05:08:51.865Z,101710.66
2023-01-11T05:11:21.047Z,101707.45
2023-01-11T05:13:50.478Z,101712.70
2023-01-11T05:16:25.996Z,101719.77
2023-01-11T05:18:58.298Z,101719.88
2023-01-11T05:21:41.960Z,101718.13
2023-01-11T05:24:16.665Z,101722.86
2023-01-11T05:26:46.625Z,101724.14
2023-01-11T05:29:20.818Z,101723.15
2023-01-11T05:31:49.781Z,101728.23
2023-01-11T05:34:19.224Z,101726.88
2023-01-11T05:36:48.046Z,101728.17
2023-01-11T05:39:16.827Z,101722.77
2023-01-11T05:41:45.968Z,101743.73
2023-01-11T05:44:33.994Z,101735.55
2023-01-11T05:47:03.050Z,101741.95
2023-01-11T05:49:31.952Z,101745.19
2023-01-11T05:52:00.900Z,101754.94
2023-01-11T05:54:29.816Z,101758.62
2023-01-11T05:56:58.669Z,101760.38
2023-01-11T05:59:27.649Z,101760.88
2023-01-11T06:01:57.949Z,101767.14
2023-01-11T06:04:27.693Z,101773.55
2023-01-11T06:06:56.739Z,101776.31
2023-01-11T06:09:26.144Z,101781.44
2023-01-11T06:11:55.071Z,101783.04
2023-01-11T06:14:24.013Z,101781.52
2023-01-11T06:16:53.234Z,101788.74
2023-01-11T06:19:22.003Z,101795.70
2023-01-11T06:21:50.767Z,101794.16
2023-01-11T06:24:20.050Z,101787.18
2023-01-11T06:26:49.177Z,101786.98
2023-01-11T06:29:18.314Z,101786.11
2023-01-11T06:31:47.533Z,101789.41
2023-01-11T06:34:16.841Z,101787.86
2023-01-11T06:36:46.104Z,101801.14
2023-01-11T06:39:15.059Z,101797.64
2023-01-11T06:41:43.864Z,101800.23
2023-01-11T06:44:12.647Z,101811.36
2023-01-11T06:46:41.532Z,101829.73
2023-01-11T06:49:11.878Z,101827.45
2023-01-11T06:51:40.579Z,101809.48
2023-01-11T06:54:09.509Z,101805.60
2023-01-11T06:56:38.265Z,101822.86
2023-01-11T06:59:07.113Z,101827.55
2023-01-11T07:01:36.067Z,101826.83
2023-01-11T07:04:05.208Z,101823.91
2023-01-11T07:06:37.057Z,101825.33
2023-01-11T07:09:05.878Z,101823.16
2023-01-11T07:11:39.100Z,101823.23
2023-01-11T07:14:07.694Z,101829.52
2023-01-11T07:16:36.701Z,101827.42
2023-01-11T07:19:05.546Z,101831.55
2023-01-11T07:21:34.307Z,101845.71
2023-01-11T07:24:03.547Z,101848.92
2023-01-11T07:26:33.372Z,101844.92
2023-01-11T07:29:02.287Z,101845.11
2023-01-11T07:31:31.117Z,101852.65
2023-01-11T07:33:59.888Z,101861.37
2023-01-11T07:36:30.163Z,101871.67
2023-01-11T07:38:59.025Z,101866.36
2023-01-11T07:41:46.429Z,101870.11
2023-01-11T07:44:16.561Z,101874.94
2023-01-11T07:46:45.424Z,101880.75
2023-01-11T07:49:14.261Z,101895.95
2023-01-11T07:51:42.950Z,101905.37
2023-01-11T07:54:11.753Z,101914.09
2023-01-11T07:56:40.591Z,101904.38
2023-01-11T07:59:10.084Z,101912.06
2023-01-11T08:01:38.948Z,101914.60
2023-01-11T08:04:12.138Z,101907.23
2023-01-11T08:06:42.281Z,101901.13
2023-01-11T08:09:11.739Z,101905.69
2023-01-11T08:11:58.914Z,101912.32
2023-01-11T08:14:39.644Z,101906.73
2023-01-11T08:17:16.495Z,101902.60
2023-01-11T08:19:45.436Z,101899.13
2023-01-11T08:22:14.218Z,101905.47
2023-01-11T08:24:43.087Z,101915.90
2023-01-11T08:27:11.996Z,101917.34
2023-01-11T08:29:44.162Z,101914.29
2023-01-11T08:32:13.717Z,101920.92
2023-01-11T08:34:42.479Z,101931.02
2023-01-11T08:37:11.345Z,101937.16
2023-01-11T08:39:40.664Z,101928.75
2023-01-11T08:42:09.457Z,101937.86
2023-01-11T08:44:38.481Z,101929.80
2023-01-11T08:47:07.608Z,101930.50
2023-01-11T08:49:36.513Z,101929.61
2023-01-11T08:52:05.315Z,101934.59
2023-01-11T08:54:34.071Z,101932.92
2023-01-11T08:57:02.974Z,101941.16
2023-01-11T08:59:32.028Z,101955.02
2023-01-11T09:02:01.740Z,101955.20
2023-01-11T09:04:30.787Z,101952.95
2023-01-11T09:06:59.867Z,101947.30
2023-01-11T09:09:28.795Z,101937.51
2023-01-11T09:11:59.005Z,101925.77
2023-01-11T09:14:28.955Z,101914.98
2023-01-11T09:16:58.251Z,101926.95
2023-01-11T09:19:27.096Z,101927.67
2023-01-11T09:22:00.414Z,101923.05
2023-01-11T09:24:32.155Z,101906.31
2023-01-11T09:27:01.121Z,101914.77
2023-01-11T09:29:29.964Z,101900.95
2023-01-11T09:31:58.779Z,101907.98
2023-01-11T09:34:27.684Z,101913.81
2023-01-11T09:37:00.134Z,101939.45
2023-01-11T09:39:29.078Z,101957.50
2023-01-11T09:42:39.864Z,101952.23
2023-01-11T09:45:31.395Z,101958.25
2023-01-11T09:48:14.972Z,101953.64
2023-01-11T09:50:48.775Z,101952.91
2023-01-11T09:53:50.493Z,101957.68
2023-01-11T09:56:39.342Z,101965.04
2023-01-11T09:59:27.184Z,101958.20
2023-01-11T10:02:10.354Z,101964.45
2023-01-11T10:05:23.687Z,101967.89
2023-01-11T10:18:30.859Z,101934.13
2023-01-11T10:18:41.879Z,101937.72
2023-01-11T10:20:41.113Z,101954.30
2023-01-11T10:23:42.149Z,101959.71
2023-01-11T10:26:25.280Z,101967.02
2023-01-11T10:29:17.069Z,101974.34
2023-01-11T10:32:22.285Z,101970.05
2023-01-11T10:35:18.205Z,101970.85
2023-01-11T10:38:07.646Z,101964.55
2023-01-11T10:41:06.949Z,101957.52
2023-01-11T10:43:44.667Z,101954.45
2023-01-11T10:46:21.842Z,101962.65
2023-01-11T10:49:03.953Z,101972.02
2023-01-11T10:51:41.016Z,101992.19
2023-01-11T10:54:30.255Z,101991.25
2023-01-11T10:57:59.492Z,101979.13
2023-01-11T11:00:51.787Z,101969.45
2023-01-11T11:03:59.639Z,101961.94
2023-01-11T11:06:45.947Z,101967.92
2023-01-11T11:09:35.652Z,101967.00
2023-01-11T11:12:30.680Z,101974.93
2023-01-11T11:15:02.191Z,101966.80
2023-01-11T11:17:41.001Z,101954.65
2023-01-11T11:20:29.535Z,101944.87
2023-01-11T11:22:59.250Z,101947.64
2023-01-11T11:25:42.606Z,101959.22
2023-01-11T11:28:15.073Z,101956.27
2023-01-11T11:30:47.463Z,101943.09
2023-01-11T11:33:40.800Z,101937.75
2023-01-11T11:36:15.319Z,101936.59
2023-01-11T11:39:18.608Z,101924.95
2023-01-11T11:41:50.202Z,101934.52
2023-01-11T11:44:25.437Z,101933.59
2023-01-11T11:47:02.470Z,101935.48
2023-01-11T11:49:36.861Z,101937.47
2023-01-11T11:52:07.018Z,101927.70
2023-01-11T11:54:48.472Z,101932.72
2023-01-11T11:57:31.367Z,101943.48
2023-01-11T12:00:22.513Z,101944.91
2023-01-11T12:03:00.017Z,101945.61
2023-01-11T12:05:29.563Z,101937.64
2023-01-11T12:07:59.118Z,101939.82
2023-01-11T12:10:30.708Z,101945.47
2023-01-11T12:13:03.011Z,101940.00
2023-01-11T12:15:35.300Z,101941.78
2023-01-11T12:18:27.872Z,101937.34
2023-01-11T12:20:56.698Z,101927.08
2023-01-11T12:23:26.839Z,101919.24
2023-01-11T12:26:22.090Z,101916.27
2023-01-11T12:29:06.053Z,101923.46
2023-01-11T12:32:00.574Z,101919.22
2023-01-11T12:34:55.735Z,101922.82
2023-01-11T12:37:57.001Z,101919.11
2023-01-11T12:40:42.137Z,101912.45
2023-01-11T12:43:36.795Z,101904.06
2023-01-11T12:46:29.855Z,101900.23
2023-01-11T12:49:35.272Z,101899.35
2023-01-11T12:52:48.434Z,101897.63
2023-01-11T12:56:20.546Z,101890.60
2023-01-11T12:59:24.356Z,101880.70
2023-01-11T13:02:08.234Z,101869.07
2023-01-11T13:05:18.789Z,101871.83
2023-01-11T13:08:18.925Z,101887.77
2023-01-11T13:11:37.487Z,101892.22
2023-01-11T13:14:45.336Z,101891.66
2023-01-11T13:17:29.116Z,101894.67
2023-01-11T13:20:28.113Z,101899.73
2023-01-11T13:23:14.574Z,101890.25
2023-01-11T13:25:48.989Z,101904.13
2023-01-11T13:28:25.331Z,101903.77
2023-01-11T13:30:54.762Z,101902.98
2023-01-11T13:33:28.149Z,101903.20
2023-01-11T13:36:56.165Z,101903.75
2023-01-11T13:39:43.000Z,101910.46
2023-01-11T13:42:22.990Z,101902.05
2023-01-11T13:45:07.737Z,101902.98
2023-01-11T13:47:51.777Z,101903.67
2023-01-11T13:50:32.347Z,101912.06
2023-01-11T13:53:20.119Z,101923.65
2023-01-11T13:56:10.134Z,101937.36
2023-01-11T13:58:57.879Z,101944.19
2023-01-11T14:01:59.515Z,101943.02
2023-01-11T14:04:43.497Z,101960.77
2023-01-11T14:08:00.994Z,101963.17
2023-01-11T14:10:43.128Z,101960.98
2023-01-11T14:13:53.247Z,101954.48
2023-01-11T14:16:50.648Z,101953.63
2023-01-11T14:19:41.595Z,101960.81
2023-01-11T14:22:21.110Z,101961.52
2023-01-11T14:25:09.741Z,101961.00
2023-01-11T14:27:41.613Z,101956.90
2023-01-11T14:30:24.947Z,101955.89
2023-01-11T14:33:19.265Z,101951.79
2023-01-11T14:36:20.492Z,101940.30
2023-01-11T14:39:17.471Z,101936.36
2023-01-11T14:42:39.988Z,101939.95
2023-01-11T14:46:05.981Z,101936.55
2023-01-11T14:49:10.933Z,101934.15
2023-01-11T14:52:04.106Z,101933.67
2023-01-11T14:54:45.562Z,101918.83
2023-01-11T14:57:45.233Z,101937.45
2023-01-11T15:00:21.161Z,101947.33
2023-01-11T15:03:04.516Z,101947.49
2023-01-11T15:05:48.520Z,101939.81
2023-01-11T15:08:24.658Z,101949.73
2023-01-11T15:11:07.957Z,101950.08
2023-01-11T15:13:46.397Z,101945.66
2023-01-11T15:16:50.022Z,101942.73
2023-01-11T15:19:34.532Z,101941.23
2023-01-11T15:22:06.487Z,101947.20
2023-01-11T15:24:54.555Z,101952.17
2023-01-11T15:27:34.361Z,101960.53
2023-01-11T15:30:28.452Z,101976.77
2023-01-11T15:33:19.304Z,101979.33
2023-01-11T15:35:57.330Z,101983.26
2023-01-11T15:38:37.663Z,101983.27
2023-01-11T15:41:33.183Z,101982.41
2023-01-11T15:44:49.184Z,101985.14
2023-01-11T15:48:07.044Z,101977.12
2023-01-11T15:51:02.941Z,101975.39
2023-01-11T15:54:01.597Z,101980.36
2023-01-11T15:57:14.579Z,101987.70
2023-01-11T16:00:05.977Z,101982.08
2023-01-11T16:02:34.720Z,101975.58
2023-01-11T16:05:20.616Z,101980.86
2023-01-11T16:08:19.849Z,101978.99
2023-01-11T16:11:43.199Z,101967.56
2023-01-11T16:15:03.444Z,101968.75
2023-01-11T16:17:34.815Z,101975.08
2023-01-11T16:20:28.098Z,101983.94
2023-01-11T16:23:01.556Z,101981.21
2023-01-11T16:25:41.940Z,101975.57
2023-01-11T16:28:17.575Z,101969.60
2023-01-11T16:30:47.628Z,101957.66
2023-01-11T16:33:25.561Z,101955.27
2023-01-11T16:36:13.381Z,101963.63
2023-01-11T16:39:03.049Z,101961.94
2023-01-11T16:42:06.295Z,101961.06
2023-01-11T16:44:48.990Z,101979.68
2023-01-11T16:47:20.481Z,101992.30
2023-01-11T16:50:21.868Z,101992.65
2023-01-11T16:53:07.364Z,101991.96
2023-01-11T16:55:42.836Z,101991.95
2023-01-11T16:58:29.336Z,101998.95
2023-01-11T17:01:05.220Z,101999.48
2023-01-11T17:03:43.995Z,102002.04
2023-01-11T17:06:13.329Z,101998.27
2023-01-11T17:08:55.197Z,101994.70
2023-01-11T17:11:46.928Z,101992.30
2023-01-11T17:14:31.636Z,101999.48
2023-01-11T17:17:07.444Z,101999.82
2023-01-11T17:19:43.383Z,102000.67
2023-01-11T17:22:31.759Z,101994.02
2023-01-11T17:25:05.198Z,101990.61
2023-01-11T17:27:46.205Z,101987.70
2023-01-11T17:30:22.908Z,101992.14
2023-01-11T17:32:54.527Z,102001.36
2023-01-11T17:35:30.682Z,102004.25
2023-01-11T17:38:06.188Z,102007.14
2023-01-11T17:40:39.308Z,101999.64
2023-01-11T17:43:46.107Z,101994.02
2023-01-11T17:46:22.971Z,101981.23
2023-01-11T17:49:00.320Z,101981.55
2023-01-11T17:51:34.428Z,101979.84
2023-01-11T17:54:03.839Z,101987.69
2023-01-11T17:56:33.038Z,102003.37
2023-01-11T17:59:23.884Z,102004.74
2023-01-11T18:01:59.810Z,102014.48
2023-01-11T18:04:29.647Z,102013.97
2023-01-11T18:07:20.040Z,102003.90
2023-01-11T18:10:02.144Z,102007.80
2023-01-11T18:12:35.642Z,102012.73
2023-01-11T18:15:07.239Z,102017.50
2023-01-11T18:17:40.480Z,102012.38
2023-01-11T18:20:15.580Z,102018.02
2023-01-11T18:23:20.698Z,102012.40
2023-01-11T18:25:49.512Z,102004.56
2023-01-11T18:28:23.831Z,101990.21
2023-01-11T18:30:56.757Z,101977.73
2023-01-11T18:33:29.782Z,101982.86
2023-01-11T18:36:03.322Z,101986.80
2023-01-11T18:38:36.628Z,101983.39
2023-01-11T18:41:28.555Z,101984.75
2023-01-11T18:43:57.365Z,101987.65
2023-01-11T18:46:26.330Z,101982.67
2023-01-11T18:48:55.255Z,101983.38
2023-01-11T18:51:36.212Z,101977.77
2023-01-11T18:54:05.807Z,101971.27
2023-01-11T18:56:34.671Z,101976.73
2023-01-11T18:59:03.457Z,101978.40
2023-01-11T19:01:37.630Z,101980.75
2023-01-11T19:04:14.640Z,101980.43
2023-01-11T19:06:43.466Z,101974.65
2023-01-11T19:09:12.227Z,101966.12
2023-01-11T19:11:40.927Z,101962.18
2023-01-11T19:14:11.074Z,101964.91
2023-01-11T19:16:39.956Z,101946.13
2023-01-11T19:19:09.495Z,101951.24
2023-01-11T19:21:38.421Z,101949.89
2023-01-11T19:24:07.736Z,101950.23
2023-01-11T19:26:36.671Z,101952.95
2023-01-11T19:29:05.601Z,101959.11
2023-01-11T19:31:34.410Z,101964.24
2023-01-11T19:34:03.252Z,101965.61
2023-01-11T19:36:32.441Z,101953.31
2023-01-11T19:39:01.279Z,101945.98
2023-01-11T19:41:50.078Z,101949.20
2023-01-11T19:44:19.602Z,101946.41
2023-01-11T19:47:00.383Z,101946.95
2023-01-11T19:49:39.428Z,101953.58
2023-01-11T19:52:13.588Z,101954.60
2023-01-11T19:54:43.702Z,101951.21
2023-01-11T19:57:15.983Z,101954.60
2023-01-11T19:59:44.976Z,101955.12
2023-01-11T20:02:15.995Z,101956.81
2023-01-11T20:04:45.280Z,101953.23
2023-01-11T20:07:14.982Z,101954.63
2023-01-11T20:09:44.213Z,101950.37
2023-01-11T20:12:15.731Z,101950.90
2023-01-11T20:14:46.440Z,101951.93
2023-01-11T20:17:21.248Z,101950.76
2023-01-11T20:19:54.877Z,101953.63
2023-01-11T20:22:25.260Z,101940.34
2023-01-11T20:24:53.995Z,101933.19
2023-01-11T20:27:22.784Z,101933.54
2023-01-11T20:29:51.527Z,101929.61
2023-01-11T20:32:39.684Z,101929.23
2023-01-11T20:35:10.756Z,101933.17
2023-01-11T20:37:39.674Z,101942.20
2023-01-11T20:40:09.343Z,101949.38
2023-01-11T20:42:38.208Z,101933.16
2023-01-11T20:45:07.918Z,101932.29
2023-01-11T20:47:37.013Z,101941.19
2023-01-11T20:50:06.392Z,101951.88
2023-01-11T20:52:35.141Z,101956.86
2023-01-11T20:55:04.109Z,101958.71
2023-01-11T20:57:32.847Z,101948.48
2023-01-11T21:00:01.551Z,101947.45
2023-01-11T21:02:30.601Z,101950.37
2023-01-11T21:05:00.101Z,101947.13
2023-01-11T21:07:29.005Z,101953.09
2023-01-11T21:09:57.803Z,101946.95
2023-01-11T21:12:26.583Z,101951.73
2023-01-11T21:14:55.384Z,101940.49
2023-01-11T21:17:24.291Z,101946.23
2023-01-11T21:19:54.060Z,101950.34
2023-01-11T21:22:22.779Z,101952.77
2023-01-11T21:24:51.542Z,101948.67
2023-01-11T21:27:20.473Z,101944.24
2023-01-11T21:29:49.379Z,101938.08
2023-01-11T21:32:18.201Z,101938.63
2023-01-11T21:34:46.976Z,101926.20
2023-01-11T21:37:15.892Z,101919.88
2023-01-11T21:39:45.316Z,101920.41
2023-01-11T21:42:14.110Z,101923.12
2023-01-11T21:44:42.854Z,101912.73
2023-01-11T21:47:14.726Z,101927.23
2023-01-11T21:49:43.558Z,101934.02
2023-01-11T21:52:12.423Z,101913.05
2023-01-11T21:54:41.161Z,101906.90
2023-01-11T21:57:10.014Z,101894.47
2023-01-11T21:59:38.782Z,101898.39
2023-01-11T22:02:07.532Z,101898.23
2023-01-11T22:04:36.355Z,101890.55
2023-01-11T22:07:05.292Z,101898.36
2023-01-11T22:09:34.255Z,101897.34
2023-01-11T22:12:03.243Z,101900.55
2023-01-11T22:14:32.095Z,101898.18
2023-01-11T22:17:03.031Z,101896.65
2023-01-11T22:19:33.189Z,101894.42
2023-01-11T22:22:01.998Z,101892.70
2023-01-11T22:24:30.928Z,101889.14
2023-01-11T22:27:00.094Z,101878.73
2023-01-11T22:29:29.857Z,101889.48
2023-01-11T22:32:01.575Z,101893.08
2023-01-11T22:34:30.580Z,101870.93
2023-01-11T22:36:59.376Z,101879.81
2023-01-11T22:39:29.668Z,101885.43
2023-01-11T22:41:58.563Z,101892.60
2023-01-11T22:44:27.418Z,101881.00
2023-01-11T22:46:56.485Z,101881.34
2023-01-11T22:49:25.981Z,101875.52
2023-01-11T22:51:54.834Z,101873.15
2023-01-11T22:54:23.669Z,101871.47
2023-01-11T22:56:52.598Z,101868.73
2023-01-11T22:59:21.500Z,101875.89
2023-01-11T23:01:50.286Z,101881.84
2023-01-11T23:04:19.054Z,101875.72
2023-01-11T23:06:47.924Z,101866.35
2023-01-11T23:09:17.246Z,101857.65
2023-01-11T23:12:04.779Z,101854.27
2023-01-11T23:14:33.923Z,101847.92
2023-01-11T23:17:08.264Z,101842.30
2023-01-11T23:19:39.866Z,101830.02
2023-01-11T23:22:10.058Z,101835.14
2023-01-11T23:24:39.133Z,101840.59
2023-01-11T23:27:08.080Z,101835.31
2023-01-11T23:29:36.893Z,101833.92
2023-01-11T23:32:05.993Z,101832.56
2023-01-11T23:34:34.847Z,101830.86
2023-01-11T23:37:03.700Z,101837.85
2023-01-11T23:39:32.992Z,101825.05
2023-01-11T23:42:19.820Z,101831.35
2023-01-11T23:44:48.563Z,101829.28
2023-01-11T23:47:25.031Z,101828.63
2023-01-11T23:50:00.938Z,101824.89
2023-01-11T23:52:32.511Z,101819.59
2023-01-11T23:55:01.403Z,101838.52
2023-01-11T23:57:30.205Z,101833.76
2023-01-11T23:59:58.938Z,101828.64
